sensor_id;sensor_type;location;lat;lon;timestamp;P1;durP1;ratioP1;P2;durP2;ratioP2
55300;SDS011;58302;51.446;-2.000;2023-08-06T00:00:07;4.70;;;2.65;;
55300;SDS011;58302;51.446;-2.000;2023-08-06T00:02:34;3.83;;;1.70;;
55300;SDS011;58302;51.446;-2.000;2023-08-06T00:05:00;3.70;;;2.47;;
55300;SDS011;58302;51.446;-2.000;2023-08-06T00:07:26;2.28;;;1.90;;
55300;SDS011;58302;51.446;-2.000;2023-08-06T00:09:52;2.67;;;2.38;;
55300;SDS011;58302;51.446;-2.000;2023-08-06T00:12:18;4.00;;;2.00;;
55300;SDS011;58302;51.446;-2.000;2023-08-06T00:14:45;2.72;;;2.28;;
55300;SDS011;58302;51.446;-2.000;2023-08-06T00:17:11;2.30;;;2.10;;
55300;SDS011;58302;51.446;-2.000;2023-08-06T00:19:37;5.10;;;2.22;;
55300;SDS011;58302;51.446;-2.000;2023-08-06T00:22:03;3.55;;;2.28;;
55300;SDS011;58302;51.446;-2.000;2023-08-06T00:24:29;4.88;;;2.22;;
55300;SDS011;58302;51.446;-2.000;2023-08-06T00:26:55;4.07;;;2.28;;
55300;SDS011;58302;51.446;-2.000;2023-08-06T00:29:21;3.55;;;1.95;;
55300;SDS011;58302;51.446;-2.000;2023-08-06T00:31:47;3.78;;;2.83;;
55300;SDS011;58302;51.446;-2.000;2023-08-06T00:34:13;3.75;;;2.40;;
55300;SDS011;58302;51.446;-2.000;2023-08-06T00:36:39;3.85;;;2.08;;
55300;SDS011;58302;51.446;-2.000;2023-08-06T00:39:05;3.47;;;2.10;;
55300;SDS011;58302;51.446;-2.000;2023-08-06T00:41:32;4.43;;;2.42;;
55300;SDS011;58302;51.446;-2.000;2023-08-06T00:43:58;4.50;;;2.38;;
55300;SDS011;58302;51.446;-2.000;2023-08-06T00:46:24;4.50;;;2.58;;
55300;SDS011;58302;51.446;-2.000;2023-08-06T00:48:50;4.53;;;2.88;;
55300;SDS011;58302;51.446;-2.000;2023-08-06T00:51:16;4.20;;;2.95;;
55300;SDS011;58302;51.446;-2.000;2023-08-06T00:53:42;5.00;;;2.60;;
55300;SDS011;58302;51.446;-2.000;2023-08-06T00:56:09;3.50;;;2.42;;
55300;SDS011;58302;51.446;-2.000;2023-08-06T00:58:35;6.22;;;3.25;;
55300;SDS011;58302;51.446;-2.000;2023-08-06T01:01:02;3.80;;;2.60;;
55300;SDS011;58302;51.446;-2.000;2023-08-06T01:03:28;4.95;;;3.10;;
55300;SDS011;58302;51.446;-2.000;2023-08-06T01:05:54;5.63;;;3.03;;
55300;SDS011;58302;51.446;-2.000;2023-08-06T01:08:31;4.40;;;2.70;;
55300;SDS011;58302;51.446;-2.000;2023-08-06T01:16:56;7.32;;;3.10;;
55300;SDS011;58302;51.446;-2.000;2023-08-06T01:19:24;5.55;;;2.83;;
55300;SDS011;58302;51.446;-2.000;2023-08-06T01:21:50;5.50;;;3.10;;
55300;SDS011;58302;51.446;-2.000;2023-08-06T01:24:16;5.00;;;3.00;;
55300;SDS011;58302;51.446;-2.000;2023-08-06T01:26:42;5.60;;;3.58;;
55300;SDS011;58302;51.446;-2.000;2023-08-06T01:32:02;5.47;;;2.72;;
55300;SDS011;58302;51.446;-2.000;2023-08-06T01:34:30;6.20;;;2.42;;
55300;SDS011;58302;51.446;-2.000;2023-08-06T01:36:58;6.03;;;3.10;;
55300;SDS011;58302;51.446;-2.000;2023-08-06T01:39:26;6.43;;;3.80;;
55300;SDS011;58302;51.446;-2.000;2023-08-06T01:41:52;5.75;;;2.75;;
55300;SDS011;58302;51.446;-2.000;2023-08-06T01:44:18;5.35;;;2.80;;
55300;SDS011;58302;51.446;-2.000;2023-08-06T01:46:52;3.80;;;2.57;;
55300;SDS011;58302;51.446;-2.000;2023-08-06T01:49:18;5.20;;;2.90;;
55300;SDS011;58302;51.446;-2.000;2023-08-06T01:51:44;5.18;;;3.47;;
55300;SDS011;58302;51.446;-2.000;2023-08-06T01:54:10;5.10;;;3.20;;
55300;SDS011;58302;51.446;-2.000;2023-08-06T01:56:36;6.47;;;3.15;;
55300;SDS011;58302;51.446;-2.000;2023-08-06T01:59:01;7.25;;;2.80;;
55300;SDS011;58302;51.446;-2.000;2023-08-06T02:01:27;6.63;;;3.38;;
55300;SDS011;58302;51.446;-2.000;2023-08-06T02:03:53;4.53;;;3.20;;
55300;SDS011;58302;51.446;-2.000;2023-08-06T02:06:19;8.32;;;3.15;;
55300;SDS011;58302;51.446;-2.000;2023-08-06T02:08:46;5.38;;;3.45;;
55300;SDS011;58302;51.446;-2.000;2023-08-06T02:11:12;5.97;;;2.75;;
55300;SDS011;58302;51.446;-2.000;2023-08-06T02:13:37;5.28;;;2.83;;
55300;SDS011;58302;51.446;-2.000;2023-08-06T02:16:03;5.28;;;3.33;;
55300;SDS011;58302;51.446;-2.000;2023-08-06T02:18:34;9.07;;;3.28;;
55300;SDS011;58302;51.446;-2.000;2023-08-06T02:20:59;7.78;;;2.80;;
55300;SDS011;58302;51.446;-2.000;2023-08-06T02:23:26;5.70;;;3.20;;
55300;SDS011;58302;51.446;-2.000;2023-08-06T02:26:03;5.40;;;2.97;;
55300;SDS011;58302;51.446;-2.000;2023-08-06T02:28:30;7.05;;;3.35;;
55300;SDS011;58302;51.446;-2.000;2023-08-06T02:30:57;5.28;;;3.10;;
55300;SDS011;58302;51.446;-2.000;2023-08-06T02:33:23;6.03;;;3.85;;
55300;SDS011;58302;51.446;-2.000;2023-08-06T02:35:49;5.70;;;2.95;;
55300;SDS011;58302;51.446;-2.000;2023-08-06T02:38:17;11.32;;;5.00;;
55300;SDS011;58302;51.446;-2.000;2023-08-06T02:40:44;6.57;;;3.45;;
55300;SDS011;58302;51.446;-2.000;2023-08-06T02:43:14;9.57;;;4.32;;
55300;SDS011;58302;51.446;-2.000;2023-08-06T02:45:41;7.63;;;3.53;;
55300;SDS011;58302;51.446;-2.000;2023-08-06T02:48:07;6.93;;;3.72;;
55300;SDS011;58302;51.446;-2.000;2023-08-06T02:50:40;4.45;;;2.70;;
55300;SDS011;58302;51.446;-2.000;2023-08-06T02:53:07;7.32;;;3.33;;
55300;SDS011;58302;51.446;-2.000;2023-08-06T02:55:33;6.25;;;3.78;;
55300;SDS011;58302;51.446;-2.000;2023-08-06T02:58:00;8.32;;;3.60;;
55300;SDS011;58302;51.446;-2.000;2023-08-06T03:00:27;6.35;;;3.13;;
55300;SDS011;58302;51.446;-2.000;2023-08-06T03:02:56;7.45;;;3.20;;
55300;SDS011;58302;51.446;-2.000;2023-08-06T03:05:22;6.47;;;3.17;;
55300;SDS011;58302;51.446;-2.000;2023-08-06T03:07:48;4.75;;;3.50;;
55300;SDS011;58302;51.446;-2.000;2023-08-06T03:10:14;4.38;;;2.58;;
55300;SDS011;58302;51.446;-2.000;2023-08-06T03:12:40;5.18;;;2.50;;
55300;SDS011;58302;51.446;-2.000;2023-08-06T03:15:06;4.15;;;3.10;;
55300;SDS011;58302;51.446;-2.000;2023-08-06T03:17:32;2.83;;;2.33;;
55300;SDS011;58302;51.446;-2.000;2023-08-06T03:19:58;5.88;;;3.67;;
55300;SDS011;58302;51.446;-2.000;2023-08-06T03:22:25;5.68;;;2.80;;
55300;SDS011;58302;51.446;-2.000;2023-08-06T03:24:50;4.25;;;2.63;;
55300;SDS011;58302;51.446;-2.000;2023-08-06T03:27:17;3.28;;;2.22;;
55300;SDS011;58302;51.446;-2.000;2023-08-06T03:29:43;15.07;;;3.22;;
55300;SDS011;58302;51.446;-2.000;2023-08-06T03:32:09;4.63;;;2.42;;
55300;SDS011;58302;51.446;-2.000;2023-08-06T03:34:35;4.63;;;2.53;;
55300;SDS011;58302;51.446;-2.000;2023-08-06T03:37:01;5.93;;;2.55;;
55300;SDS011;58302;51.446;-2.000;2023-08-06T03:39:27;4.28;;;2.72;;
55300;SDS011;58302;51.446;-2.000;2023-08-06T03:41:54;6.70;;;2.30;;
55300;SDS011;58302;51.446;-2.000;2023-08-06T03:44:20;4.43;;;2.20;;
55300;SDS011;58302;51.446;-2.000;2023-08-06T03:46:48;3.35;;;2.38;;
55300;SDS011;58302;51.446;-2.000;2023-08-06T03:49:14;3.33;;;1.95;;
55300;SDS011;58302;51.446;-2.000;2023-08-06T03:51:41;4.28;;;2.42;;
55300;SDS011;58302;51.446;-2.000;2023-08-06T03:54:07;5.88;;;3.10;;
55300;SDS011;58302;51.446;-2.000;2023-08-06T03:56:33;6.10;;;2.92;;
55300;SDS011;58302;51.446;-2.000;2023-08-06T03:59:02;4.80;;;2.67;;
55300;SDS011;58302;51.446;-2.000;2023-08-06T04:01:28;6.80;;;2.80;;
55300;SDS011;58302;51.446;-2.000;2023-08-06T04:03:54;2.90;;;2.58;;
55300;SDS011;58302;51.446;-2.000;2023-08-06T04:06:20;3.33;;;2.90;;
55300;SDS011;58302;51.446;-2.000;2023-08-06T04:08:46;5.32;;;3.20;;
55300;SDS011;58302;51.446;-2.000;2023-08-06T04:11:12;4.05;;;2.15;;
55300;SDS011;58302;51.446;-2.000;2023-08-06T04:13:41;5.55;;;2.88;;
55300;SDS011;58302;51.446;-2.000;2023-08-06T04:16:08;4.28;;;2.92;;
55300;SDS011;58302;51.446;-2.000;2023-08-06T04:18:34;3.72;;;2.22;;
55300;SDS011;58302;51.446;-2.000;2023-08-06T04:21:01;3.78;;;2.60;;
55300;SDS011;58302;51.446;-2.000;2023-08-06T04:23:27;5.00;;;2.33;;
55300;SDS011;58302;51.446;-2.000;2023-08-06T04:25:57;4.15;;;2.33;;
55300;SDS011;58302;51.446;-2.000;2023-08-06T04:28:23;4.03;;;2.30;;
55300;SDS011;58302;51.446;-2.000;2023-08-06T04:30:50;4.28;;;2.08;;
55300;SDS011;58302;51.446;-2.000;2023-08-06T04:33:16;3.85;;;2.50;;
55300;SDS011;58302;51.446;-2.000;2023-08-06T04:35:42;4.38;;;2.40;;
55300;SDS011;58302;51.446;-2.000;2023-08-06T04:38:10;4.20;;;2.08;;
55300;SDS011;58302;51.446;-2.000;2023-08-06T04:40:37;4.65;;;2.58;;
55300;SDS011;58302;51.446;-2.000;2023-08-06T04:43:04;4.80;;;2.90;;
55300;SDS011;58302;51.446;-2.000;2023-08-06T04:45:30;3.47;;;2.08;;
55300;SDS011;58302;51.446;-2.000;2023-08-06T04:47:59;2.90;;;2.30;;
55300;SDS011;58302;51.446;-2.000;2023-08-06T04:50:35;5.47;;;2.25;;
55300;SDS011;58302;51.446;-2.000;2023-08-06T04:53:02;4.72;;;2.30;;
55300;SDS011;58302;51.446;-2.000;2023-08-06T04:55:28;3.47;;;2.05;;
55300;SDS011;58302;51.446;-2.000;2023-08-06T04:57:56;12.02;;;3.97;;
55300;SDS011;58302;51.446;-2.000;2023-08-06T05:00:22;3.70;;;2.17;;
55300;SDS011;58302;51.446;-2.000;2023-08-06T05:02:48;5.18;;;2.42;;
55300;SDS011;58302;51.446;-2.000;2023-08-06T05:05:28;3.60;;;2.45;;
55300;SDS011;58302;51.446;-2.000;2023-08-06T05:07:59;4.78;;;2.95;;
55300;SDS011;58302;51.446;-2.000;2023-08-06T05:10:25;6.13;;;3.47;;
55300;SDS011;58302;51.446;-2.000;2023-08-06T05:12:53;5.45;;;2.80;;
55300;SDS011;58302;51.446;-2.000;2023-08-06T05:15:21;3.60;;;2.53;;
55300;SDS011;58302;51.446;-2.000;2023-08-06T05:17:47;5.20;;;3.20;;
55300;SDS011;58302;51.446;-2.000;2023-08-06T05:20:15;8.05;;;2.58;;
55300;SDS011;58302;51.446;-2.000;2023-08-06T05:22:43;5.15;;;2.92;;
55300;SDS011;58302;51.446;-2.000;2023-08-06T05:25:09;6.22;;;2.90;;
55300;SDS011;58302;51.446;-2.000;2023-08-06T05:27:35;4.50;;;2.90;;
55300;SDS011;58302;51.446;-2.000;2023-08-06T05:30:01;5.28;;;2.65;;
55300;SDS011;58302;51.446;-2.000;2023-08-06T05:32:29;5.95;;;2.80;;
55300;SDS011;58302;51.446;-2.000;2023-08-06T05:34:55;4.25;;;2.72;;
55300;SDS011;58302;51.446;-2.000;2023-08-06T05:37:22;4.32;;;2.75;;
55300;SDS011;58302;51.446;-2.000;2023-08-06T05:39:54;8.60;;;3.90;;
55300;SDS011;58302;51.446;-2.000;2023-08-06T05:42:21;4.28;;;2.53;;
55300;SDS011;58302;51.446;-2.000;2023-08-06T05:44:48;3.22;;;2.03;;
55300;SDS011;58302;51.446;-2.000;2023-08-06T05:47:15;5.60;;;2.53;;
55300;SDS011;58302;51.446;-2.000;2023-08-06T05:49:42;3.55;;;2.30;;
55300;SDS011;58302;51.446;-2.000;2023-08-06T05:52:08;4.55;;;2.30;;
55300;SDS011;58302;51.446;-2.000;2023-08-06T05:54:34;8.52;;;2.40;;
55300;SDS011;58302;51.446;-2.000;2023-08-06T05:57:01;3.88;;;2.05;;
55300;SDS011;58302;51.446;-2.000;2023-08-06T05:59:27;5.07;;;2.65;;
55300;SDS011;58302;51.446;-2.000;2023-08-06T06:01:53;3.80;;;2.10;;
55300;SDS011;58302;51.446;-2.000;2023-08-06T06:04:24;3.08;;;2.28;;
55300;SDS011;58302;51.446;-2.000;2023-08-06T06:06:51;4.65;;;2.03;;
55300;SDS011;58302;51.446;-2.000;2023-08-06T06:09:19;4.03;;;2.08;;
55300;SDS011;58302;51.446;-2.000;2023-08-06T06:11:47;3.50;;;1.83;;
55300;SDS011;58302;51.446;-2.000;2023-08-06T06:14:16;1.73;;;1.40;;
55300;SDS011;58302;51.446;-2.000;2023-08-06T06:16:45;2.95;;;1.95;;
55300;SDS011;58302;51.446;-2.000;2023-08-06T06:19:15;2.88;;;1.77;;
55300;SDS011;58302;51.446;-2.000;2023-08-06T06:21:41;3.25;;;2.00;;
55300;SDS011;58302;51.446;-2.000;2023-08-06T06:24:12;5.10;;;2.08;;
55300;SDS011;58302;51.446;-2.000;2023-08-06T06:26:41;2.83;;;1.60;;
55300;SDS011;58302;51.446;-2.000;2023-08-06T06:29:09;3.38;;;1.95;;
55300;SDS011;58302;51.446;-2.000;2023-08-06T06:31:39;2.83;;;1.70;;
55300;SDS011;58302;51.446;-2.000;2023-08-06T06:34:11;3.00;;;1.80;;
55300;SDS011;58302;51.446;-2.000;2023-08-06T06:36:53;2.03;;;1.65;;
55300;SDS011;58302;51.446;-2.000;2023-08-06T06:39:21;3.05;;;1.67;;
55300;SDS011;58302;51.446;-2.000;2023-08-06T06:41:49;2.85;;;1.63;;
55300;SDS011;58302;51.446;-2.000;2023-08-06T06:44:15;3.95;;;1.40;;
55300;SDS011;58302;51.446;-2.000;2023-08-06T06:46:46;3.90;;;1.77;;
55300;SDS011;58302;51.446;-2.000;2023-08-06T06:49:19;3.90;;;1.90;;
55300;SDS011;58302;51.446;-2.000;2023-08-06T06:51:46;3.70;;;2.30;;
55300;SDS011;58302;51.446;-2.000;2023-08-06T06:54:12;3.85;;;1.55;;
55300;SDS011;58302;51.446;-2.000;2023-08-06T06:56:38;3.40;;;1.50;;
55300;SDS011;58302;51.446;-2.000;2023-08-06T06:59:04;1.75;;;1.25;;
55300;SDS011;58302;51.446;-2.000;2023-08-06T07:01:31;2.60;;;1.23;;
55300;SDS011;58302;51.446;-2.000;2023-08-06T07:03:57;4.80;;;1.67;;
55300;SDS011;58302;51.446;-2.000;2023-08-06T07:06:24;1.90;;;1.30;;
55300;SDS011;58302;51.446;-2.000;2023-08-06T07:08:50;1.90;;;1.45;;
55300;SDS011;58302;51.446;-2.000;2023-08-06T07:11:22;3.38;;;1.30;;
55300;SDS011;58302;51.446;-2.000;2023-08-06T07:13:49;2.67;;;1.48;;
55300;SDS011;58302;51.446;-2.000;2023-08-06T07:16:24;2.72;;;1.75;;
55300;SDS011;58302;51.446;-2.000;2023-08-06T07:18:51;1.35;;;1.10;;
55300;SDS011;58302;51.446;-2.000;2023-08-06T07:21:47;2.10;;;1.85;;
55300;SDS011;58302;51.446;-2.000;2023-08-06T07:24:13;1.70;;;1.30;;
55300;SDS011;58302;51.446;-2.000;2023-08-06T07:26:39;1.38;;;1.13;;
55300;SDS011;58302;51.446;-2.000;2023-08-06T07:29:05;3.05;;;1.13;;
55300;SDS011;58302;51.446;-2.000;2023-08-06T07:31:31;1.35;;;1.02;;
55300;SDS011;58302;51.446;-2.000;2023-08-06T07:33:57;2.55;;;1.35;;
55300;SDS011;58302;51.446;-2.000;2023-08-06T07:36:23;3.72;;;1.35;;
55300;SDS011;58302;51.446;-2.000;2023-08-06T07:38:49;1.15;;;1.05;;
55300;SDS011;58302;51.446;-2.000;2023-08-06T07:41:21;2.08;;;1.27;;
55300;SDS011;58302;51.446;-2.000;2023-08-06T07:43:48;2.92;;;1.00;;
55300;SDS011;58302;51.446;-2.000;2023-08-06T07:46:14;1.92;;;1.10;;
55300;SDS011;58302;51.446;-2.000;2023-08-06T07:48:40;1.25;;;0.90;;
55300;SDS011;58302;51.446;-2.000;2023-08-06T07:51:06;2.15;;;0.85;;
55300;SDS011;58302;51.446;-2.000;2023-08-06T07:53:32;2.05;;;1.17;;
55300;SDS011;58302;51.446;-2.000;2023-08-06T07:55:58;2.03;;;1.25;;
55300;SDS011;58302;51.446;-2.000;2023-08-06T07:58:27;1.38;;;0.90;;
55300;SDS011;58302;51.446;-2.000;2023-08-06T08:00:55;2.05;;;0.98;;
55300;SDS011;58302;51.446;-2.000;2023-08-06T08:03:20;1.75;;;0.85;;
55300;SDS011;58302;51.446;-2.000;2023-08-06T08:05:46;1.15;;;0.80;;
55300;SDS011;58302;51.446;-2.000;2023-08-06T08:08:13;2.33;;;1.23;;
55300;SDS011;58302;51.446;-2.000;2023-08-06T08:10:39;2.20;;;0.85;;
55300;SDS011;58302;51.446;-2.000;2023-08-06T08:13:05;2.28;;;1.45;;
55300;SDS011;58302;51.446;-2.000;2023-08-06T08:15:31;1.77;;;0.90;;
55300;SDS011;58302;51.446;-2.000;2023-08-06T08:17:58;1.85;;;1.17;;
55300;SDS011;58302;51.446;-2.000;2023-08-06T08:20:24;2.53;;;1.05;;
55300;SDS011;58302;51.446;-2.000;2023-08-06T08:22:50;1.45;;;1.05;;
55300;SDS011;58302;51.446;-2.000;2023-08-06T08:25:16;0.82;;;0.73;;
55300;SDS011;58302;51.446;-2.000;2023-08-06T08:27:42;0.90;;;0.82;;
55300;SDS011;58302;51.446;-2.000;2023-08-06T08:30:08;2.88;;;0.90;;
55300;SDS011;58302;51.446;-2.000;2023-08-06T08:32:34;2.13;;;0.80;;
55300;SDS011;58302;51.446;-2.000;2023-08-06T08:35:00;2.15;;;0.90;;
55300;SDS011;58302;51.446;-2.000;2023-08-06T08:37:26;1.17;;;0.90;;
55300;SDS011;58302;51.446;-2.000;2023-08-06T08:39:52;2.33;;;0.93;;
55300;SDS011;58302;51.446;-2.000;2023-08-06T08:42:18;1.10;;;0.60;;
55300;SDS011;58302;51.446;-2.000;2023-08-06T08:44:45;1.05;;;0.70;;
55300;SDS011;58302;51.446;-2.000;2023-08-06T08:47:11;1.40;;;1.30;;
55300;SDS011;58302;51.446;-2.000;2023-08-06T08:49:38;1.25;;;1.10;;
55300;SDS011;58302;51.446;-2.000;2023-08-06T08:52:06;1.95;;;1.02;;
55300;SDS011;58302;51.446;-2.000;2023-08-06T08:54:36;1.00;;;0.70;;
55300;SDS011;58302;51.446;-2.000;2023-08-06T08:57:04;0.73;;;0.57;;
55300;SDS011;58302;51.446;-2.000;2023-08-06T08:59:33;0.90;;;0.90;;
55300;SDS011;58302;51.446;-2.000;2023-08-06T09:02:00;2.63;;;0.70;;
55300;SDS011;58302;51.446;-2.000;2023-08-06T09:04:27;1.45;;;0.65;;
55300;SDS011;58302;51.446;-2.000;2023-08-06T09:06:57;1.05;;;0.70;;
55300;SDS011;58302;51.446;-2.000;2023-08-06T09:09:28;0.57;;;0.57;;
55300;SDS011;58302;51.446;-2.000;2023-08-06T09:11:59;0.88;;;0.65;;
55300;SDS011;58302;51.446;-2.000;2023-08-06T09:14:46;1.23;;;0.82;;
55300;SDS011;58302;51.446;-2.000;2023-08-06T09:17:17;0.60;;;0.60;;
55300;SDS011;58302;51.446;-2.000;2023-08-06T09:19:46;2.92;;;0.70;;
55300;SDS011;58302;51.446;-2.000;2023-08-06T09:22:13;1.23;;;0.60;;
55300;SDS011;58302;51.446;-2.000;2023-08-06T09:24:40;1.73;;;0.45;;
55300;SDS011;58302;51.446;-2.000;2023-08-06T09:27:14;0.47;;;0.40;;
55300;SDS011;58302;51.446;-2.000;2023-08-06T09:29:46;1.67;;;0.63;;
55300;SDS011;58302;51.446;-2.000;2023-08-06T09:32:12;0.98;;;0.52;;
55300;SDS011;58302;51.446;-2.000;2023-08-06T09:34:39;1.15;;;0.70;;
55300;SDS011;58302;51.446;-2.000;2023-08-06T09:37:09;2.22;;;0.73;;
55300;SDS011;58302;51.446;-2.000;2023-08-06T09:39:38;1.55;;;0.73;;
55300;SDS011;58302;51.446;-2.000;2023-08-06T09:42:08;0.82;;;0.77;;
55300;SDS011;58302;51.446;-2.000;2023-08-06T09:44:34;2.55;;;1.17;;
55300;SDS011;58302;51.446;-2.000;2023-08-06T09:47:01;0.22;;;0.22;;
55300;SDS011;58302;51.446;-2.000;2023-08-06T09:52:01;0.68;;;0.68;;
55300;SDS011;58302;51.446;-2.000;2023-08-06T09:54:28;1.17;;;0.68;;
55300;SDS011;58302;51.446;-2.000;2023-08-06T09:56:56;0.57;;;0.57;;
55300;SDS011;58302;51.446;-2.000;2023-08-06T09:59:23;1.05;;;0.47;;
55300;SDS011;58302;51.446;-2.000;2023-08-06T10:01:49;0.63;;;0.50;;
55300;SDS011;58302;51.446;-2.000;2023-08-06T10:04:16;0.95;;;0.75;;
55300;SDS011;58302;51.446;-2.000;2023-08-06T10:06:43;1.55;;;0.50;;
55300;SDS011;58302;51.446;-2.000;2023-08-06T10:09:13;0.50;;;0.50;;
55300;SDS011;58302;51.446;-2.000;2023-08-06T10:11:40;0.98;;;0.98;;
55300;SDS011;58302;51.446;-2.000;2023-08-06T10:14:14;0.70;;;0.37;;
55300;SDS011;58302;51.446;-2.000;2023-08-06T10:16:46;0.65;;;0.47;;
55300;SDS011;58302;51.446;-2.000;2023-08-06T10:19:13;0.55;;;0.50;;
55300;SDS011;58302;51.446;-2.000;2023-08-06T10:21:50;0.70;;;0.70;;
55300;SDS011;58302;51.446;-2.000;2023-08-06T10:24:52;0.82;;;0.52;;
55300;SDS011;58302;51.446;-2.000;2023-08-06T10:27:53;0.50;;;0.50;;
55300;SDS011;58302;51.446;-2.000;2023-08-06T10:32:51;0.60;;;0.60;;
55300;SDS011;58302;51.446;-2.000;2023-08-06T10:38:04;0.73;;;0.60;;
55300;SDS011;58302;51.446;-2.000;2023-08-06T10:40:39;0.50;;;0.45;;
55300;SDS011;58302;51.446;-2.000;2023-08-06T10:43:06;0.40;;;0.30;;
55300;SDS011;58302;51.446;-2.000;2023-08-06T10:45:49;0.60;;;0.60;;
55300;SDS011;58302;51.446;-2.000;2023-08-06T10:49:13;0.40;;;0.40;;
55300;SDS011;58302;51.446;-2.000;2023-08-06T10:51:44;1.15;;;0.73;;
55300;SDS011;58302;51.446;-2.000;2023-08-06T10:54:23;0.60;;;0.60;;
55300;SDS011;58302;51.446;-2.000;2023-08-06T10:59:26;1.63;;;0.60;;
55300;SDS011;58302;51.446;-2.000;2023-08-06T11:01:58;0.35;;;0.20;;
55300;SDS011;58302;51.446;-2.000;2023-08-06T11:04:32;0.68;;;0.50;;
55300;SDS011;58302;51.446;-2.000;2023-08-06T11:06:58;0.63;;;0.60;;
55300;SDS011;58302;51.446;-2.000;2023-08-06T11:09:25;0.43;;;0.43;;
55300;SDS011;58302;51.446;-2.000;2023-08-06T11:14:37;1.05;;;0.50;;
55300;SDS011;58302;51.446;-2.000;2023-08-06T11:17:04;1.38;;;0.40;;
55300;SDS011;58302;51.446;-2.000;2023-08-06T11:19:31;1.10;;;0.60;;
55300;SDS011;58302;51.446;-2.000;2023-08-06T11:21:57;0.82;;;0.55;;
55300;SDS011;58302;51.446;-2.000;2023-08-06T11:24:33;1.55;;;0.47;;
55300;SDS011;58302;51.446;-2.000;2023-08-06T11:26:59;1.20;;;0.50;;
55300;SDS011;58302;51.446;-2.000;2023-08-06T11:29:25;0.22;;;0.22;;
55300;SDS011;58302;51.446;-2.000;2023-08-06T11:31:52;0.20;;;0.20;;
55300;SDS011;58302;51.446;-2.000;2023-08-06T11:34:27;1.45;;;1.05;;
55300;SDS011;58302;51.446;-2.000;2023-08-06T11:39:22;0.45;;;0.40;;
55300;SDS011;58302;51.446;-2.000;2023-08-06T11:41:51;0.75;;;0.75;;
55300;SDS011;58302;51.446;-2.000;2023-08-06T11:47:49;1.75;;;0.70;;
55300;SDS011;58302;51.446;-2.000;2023-08-06T11:50:48;1.75;;;0.80;;
55300;SDS011;58302;51.446;-2.000;2023-08-06T11:53:19;0.32;;;0.32;;
55300;SDS011;58302;51.446;-2.000;2023-08-06T11:55:45;1.02;;;0.45;;
55300;SDS011;58302;51.446;-2.000;2023-08-06T11:58:13;0.80;;;0.50;;
55300;SDS011;58302;51.446;-2.000;2023-08-06T12:00:46;1.02;;;0.77;;
55300;SDS011;58302;51.446;-2.000;2023-08-06T12:03:21;0.98;;;0.70;;
55300;SDS011;58302;51.446;-2.000;2023-08-06T12:06:06;0.43;;;0.43;;
55300;SDS011;58302;51.446;-2.000;2023-08-06T12:08:38;0.43;;;0.43;;
55300;SDS011;58302;51.446;-2.000;2023-08-06T12:11:06;0.50;;;0.50;;
55300;SDS011;58302;51.446;-2.000;2023-08-06T12:14:37;0.50;;;0.50;;
55300;SDS011;58302;51.446;-2.000;2023-08-06T12:24:10;1.52;;;0.40;;
55300;SDS011;58302;51.446;-2.000;2023-08-06T12:26:35;0.70;;;0.63;;
55300;SDS011;58302;51.446;-2.000;2023-08-06T12:29:01;0.40;;;0.40;;
55300;SDS011;58302;51.446;-2.000;2023-08-06T12:31:28;0.57;;;0.30;;
55300;SDS011;58302;51.446;-2.000;2023-08-06T12:33:54;1.48;;;0.60;;
55300;SDS011;58302;51.446;-2.000;2023-08-06T12:36:20;0.63;;;0.50;;
55300;SDS011;58302;51.446;-2.000;2023-08-06T12:38:46;0.43;;;0.43;;
55300;SDS011;58302;51.446;-2.000;2023-08-06T12:41:12;0.50;;;0.50;;
55300;SDS011;58302;51.446;-2.000;2023-08-06T12:43:38;0.50;;;0.40;;
55300;SDS011;58302;51.446;-2.000;2023-08-06T12:46:04;5.80;;;1.25;;
55300;SDS011;58302;51.446;-2.000;2023-08-06T12:48:30;1.08;;;0.57;;
55300;SDS011;58302;51.446;-2.000;2023-08-06T12:50:56;0.70;;;0.70;;
55300;SDS011;58302;51.446;-2.000;2023-08-06T12:53:22;1.83;;;1.23;;
55300;SDS011;58302;51.446;-2.000;2023-08-06T12:55:48;0.57;;;0.57;;
55300;SDS011;58302;51.446;-2.000;2023-08-06T12:58:14;0.63;;;0.55;;
55300;SDS011;58302;51.446;-2.000;2023-08-06T13:00:40;0.40;;;0.40;;
55300;SDS011;58302;51.446;-2.000;2023-08-06T13:03:06;1.08;;;0.88;;
55300;SDS011;58302;51.446;-2.000;2023-08-06T13:05:32;0.40;;;0.40;;
55300;SDS011;58302;51.446;-2.000;2023-08-06T13:07:58;0.82;;;0.73;;
55300;SDS011;58302;51.446;-2.000;2023-08-06T13:10:24;1.10;;;0.43;;
55300;SDS011;58302;51.446;-2.000;2023-08-06T13:12:51;1.25;;;0.57;;
55300;SDS011;58302;51.446;-2.000;2023-08-06T13:15:17;0.40;;;0.32;;
55300;SDS011;58302;51.446;-2.000;2023-08-06T13:17:45;0.43;;;0.43;;
55300;SDS011;58302;51.446;-2.000;2023-08-06T13:20:11;0.40;;;0.40;;
55300;SDS011;58302;51.446;-2.000;2023-08-06T13:22:37;0.70;;;0.57;;
55300;SDS011;58302;51.446;-2.000;2023-08-06T13:25:03;0.77;;;0.77;;
55300;SDS011;58302;51.446;-2.000;2023-08-06T13:27:32;0.68;;;0.68;;
55300;SDS011;58302;51.446;-2.000;2023-08-06T13:29:58;1.25;;;0.68;;
55300;SDS011;58302;51.446;-2.000;2023-08-06T13:32:27;0.60;;;0.40;;
55300;SDS011;58302;51.446;-2.000;2023-08-06T13:34:53;1.35;;;0.52;;
55300;SDS011;58302;51.446;-2.000;2023-08-06T13:37:19;0.80;;;0.60;;
55300;SDS011;58302;51.446;-2.000;2023-08-06T13:39:45;2.42;;;1.10;;
55300;SDS011;58302;51.446;-2.000;2023-08-06T13:42:11;1.98;;;0.68;;
55300;SDS011;58302;51.446;-2.000;2023-08-06T13:44:37;0.38;;;0.38;;
55300;SDS011;58302;51.446;-2.000;2023-08-06T13:47:03;1.25;;;1.15;;
55300;SDS011;58302;51.446;-2.000;2023-08-06T13:49:29;1.30;;;1.08;;
55300;SDS011;58302;51.446;-2.000;2023-08-06T13:51:55;0.77;;;0.50;;
55300;SDS011;58302;51.446;-2.000;2023-08-06T13:54:22;1.58;;;0.52;;
55300;SDS011;58302;51.446;-2.000;2023-08-06T13:56:48;1.63;;;0.70;;
55300;SDS011;58302;51.446;-2.000;2023-08-06T13:59:15;0.75;;;0.45;;
55300;SDS011;58302;51.446;-2.000;2023-08-06T14:01:42;0.82;;;0.50;;
55300;SDS011;58302;51.446;-2.000;2023-08-06T14:04:08;1.27;;;0.32;;
55300;SDS011;58302;51.446;-2.000;2023-08-06T14:06:34;0.20;;;0.20;;
55300;SDS011;58302;51.446;-2.000;2023-08-06T14:09:00;2.08;;;0.43;;
55300;SDS011;58302;51.446;-2.000;2023-08-06T14:11:26;0.13;;;0.13;;
55300;SDS011;58302;51.446;-2.000;2023-08-06T14:13:53;0.22;;;0.10;;
55300;SDS011;58302;51.446;-2.000;2023-08-06T14:16:19;0.50;;;0.40;;
55300;SDS011;58302;51.446;-2.000;2023-08-06T14:18:45;0.35;;;0.35;;
55300;SDS011;58302;51.446;-2.000;2023-08-06T14:21:11;0.60;;;0.47;;
55300;SDS011;58302;51.446;-2.000;2023-08-06T14:23:37;0.60;;;0.22;;
55300;SDS011;58302;51.446;-2.000;2023-08-06T14:26:03;0.20;;;0.20;;
55300;SDS011;58302;51.446;-2.000;2023-08-06T14:28:29;2.00;;;0.77;;
55300;SDS011;58302;51.446;-2.000;2023-08-06T14:30:55;0.30;;;0.30;;
55300;SDS011;58302;51.446;-2.000;2023-08-06T14:33:22;0.70;;;0.45;;
55300;SDS011;58302;51.446;-2.000;2023-08-06T14:35:48;3.60;;;0.60;;
55300;SDS011;58302;51.446;-2.000;2023-08-06T14:38:14;1.20;;;0.70;;
55300;SDS011;58302;51.446;-2.000;2023-08-06T14:40:40;1.35;;;0.77;;
55300;SDS011;58302;51.446;-2.000;2023-08-06T14:43:06;0.93;;;0.40;;
55300;SDS011;58302;51.446;-2.000;2023-08-06T14:45:32;0.88;;;0.70;;
55300;SDS011;58302;51.446;-2.000;2023-08-06T14:47:58;2.40;;;1.30;;
55300;SDS011;58302;51.446;-2.000;2023-08-06T14:50:24;2.38;;;1.48;;
55300;SDS011;58302;51.446;-2.000;2023-08-06T14:52:50;1.13;;;0.82;;
55300;SDS011;58302;51.446;-2.000;2023-08-06T14:55:25;1.52;;;0.93;;
55300;SDS011;58302;51.446;-2.000;2023-08-06T14:57:52;3.15;;;1.15;;
55300;SDS011;58302;51.446;-2.000;2023-08-06T15:00:18;2.22;;;1.27;;
55300;SDS011;58302;51.446;-2.000;2023-08-06T15:02:45;1.20;;;0.60;;
55300;SDS011;58302;51.446;-2.000;2023-08-06T15:05:11;0.60;;;0.50;;
55300;SDS011;58302;51.446;-2.000;2023-08-06T15:07:38;0.52;;;0.40;;
55300;SDS011;58302;51.446;-2.000;2023-08-06T15:10:04;3.63;;;1.63;;
55300;SDS011;58302;51.446;-2.000;2023-08-06T15:12:31;0.30;;;0.30;;